Time;durP1;ratioP1;P1;durP2;ratioP2;P2;SDS_P1;SDS_P2;PMS_P1;PMS_P2;Temp;Humidity;BMP_temperature;BMP_pressure;BME280_temperature;BME280_humidity;BME280_pressure;Samples;Min_cycle;Max_cycle;Signal;HPM_P1;HPM_P2
2022/10/16 00:00:40;;;;;;;54.53;35.45;;;;;;;;;;5070514;28;20044;-69
2022/10/16 00:03:45;;;;;;;56.67;35.17;;;;;;;;;;5070614;28;20408;-68
2022/10/16 00:06:49;;;;;;;54.88;35.83;;;;;;;;;;5070569;28;20052;-69
2022/10/16 00:09:53;;;;;;;54.97;35.90;;;;;;;;;;5070572;28;20043;-69
2022/10/16 00:12:58;;;;;;;54.50;35.80;;;;;;;;;;5070590;28;20633;-69
2022/10/16 00:16:03;;;;;;;52.80;35.95;;;;;;;;;;5070844;28;20044;-68
2022/10/16 00:19:07;;;;;;;55.67;36.35;;;;;;;;;;5070316;28;20332;-69
2022/10/16 00:22:12;;;;;;;54.83;36.15;;;;;;;;;;5070449;28;20127;-70
2022/10/16 00:25:28;;;;;;;54.38;34.40;;;;;;;;;;5070406;28;20044;-69
2022/10/16 00:28:32;;;;;;;55.58;33.05;;;;;;;;;;5069809;28;20052;-68
2022/10/16 00:31:37;;;;;;;56.70;35.45;;;;;;;;;;5069924;28;20063;-71
2022/10/16 00:34:41;;;;;;;51.58;33.90;;;;;;;;;;5072103;28;20092;-69
2022/10/16 00:37:45;;;;;;;55.03;34.90;;;;;;;;;;5073481;28;20044;-68
2022/10/16 00:40:49;;;;;;;53.30;34.08;;;;;;;;;;5074246;28;20376;-69
2022/10/16 00:43:55;;;;;;;53.40;34.20;;;;;;;;;;5073831;28;20035;-68
2022/10/16 00:46:59;;;;;;;55.72;33.97;;;;;;;;;;5073730;28;20039;-68
2022/10/16 00:50:22;;;;;;;52.60;33.80;;;;;;;;;;5073938;28;20048;-69
2022/10/16 00:53:26;;;;;;;52.28;32.70;;;;;;;;;;5073496;28;20079;-69
2022/10/16 00:56:30;;;;;;;53.80;34.55;;;;;;;;;;5073756;28;20075;-69
2022/10/16 00:59:36;;;;;;;51.33;32.97;;;;;;;;;;5073690;28;20035;-68
2022/10/16 01:02:41;;;;;;;52.38;32.22;;;;;;;;;;5073652;28;20400;-68
2022/10/16 01:05:51;;;;;;;47.63;31.75;;;;;;;;;;5073670;28;20051;-69
2022/10/16 01:09:08;;;;;;;55.42;33.90;;;;;;;;;;5072735;28;20052;-69
2022/10/16 01:12:17;;;;;;;56.25;33.67;;;;;;;;;;5072409;28;20043;-69
2022/10/16 01:15:31;;;;;;;51.22;31.05;;;;;;;;;;5073156;28;20047;-69
2022/10/16 01:18:43;;;;;;;51.42;29.65;;;;;;;;;;5073356;28;20395;-69
2022/10/16 01:21:48;;;;;;;44.38;29.60;;;;;;;;;;5073191;28;20043;-68
2022/10/16 01:24:54;;;;;;;41.90;28.45;;;;;;;;;;5073097;28;20412;-69
2022/10/16 01:27:59;;;;;;;47.67;28.83;;;;;;;;;;5073061;28;20099;-69
2022/10/16 01:31:03;;;;;;;41.85;29.83;;;;;;;;;;5072303;28;20056;-70
2022/10/16 01:34:13;;;;;;;50.22;34.42;;;;;;;;;;5072913;28;20051;-67
2022/10/16 01:37:21;;;;;;;47.85;30.65;;;;;;;;;;5072702;28;20043;-69
2022/10/16 01:40:27;;;;;;;42.25;29.27;;;;;;;;;;5072830;28;20035;-68
2022/10/16 01:43:38;;;;;;;48.08;29.45;;;;;;;;;;5072888;28;20638;-68
2022/10/16 01:46:44;;;;;;;45.75;29.20;;;;;;;;;;5073303;28;20098;-70
2022/10/16 01:49:48;;;;;;;45.50;31.35;;;;;;;;;;5071878;28;20048;-68
2022/10/16 01:52:53;;;;;;;50.00;32.10;;;;;;;;;;5072724;28;20512;-69
2022/10/16 01:55:58;;;;;;;49.67;32.05;;;;;;;;;;5072555;28;20051;-69
2022/10/16 01:59:07;;;;;;;52.63;31.75;;;;;;;;;;5072410;28;20035;-67
2022/10/16 02:02:12;;;;;;;46.50;29.48;;;;;;;;;;5072481;28;20055;-67
2022/10/16 02:05:19;;;;;;;50.45;30.90;;;;;;;;;;5072673;28;20043;-67
2022/10/16 02:08:28;;;;;;;51.42;30.30;;;;;;;;;;5072437;28;20210;-69
2022/10/16 02:11:32;;;;;;;43.28;27.70;;;;;;;;;;5072119;28;20040;-67
2022/10/16 02:14:38;;;;;;;45.17;28.33;;;;;;;;;;5071996;28;20063;-67
2022/10/16 02:17:42;;;;;;;42.85;27.10;;;;;;;;;;5072541;28;20044;-67
2022/10/16 02:20:52;;;;;;;39.38;26.02;;;;;;;;;;5072148;28;20396;-67
2022/10/16 02:23:57;;;;;;;42.95;28.02;;;;;;;;;;5072093;28;20047;-69
2022/10/16 02:27:11;;;;;;;40.28;27.10;;;;;;;;;;5071970;28;20035;-67
2022/10/16 02:30:19;;;;;;;42.90;25.88;;;;;;;;;;5071591;28;20040;-67
2022/10/16 02:33:25;;;;;;;50.33;27.85;;;;;;;;;;5071867;28;20055;-67
2022/10/16 02:36:30;;;;;;;42.22;27.58;;;;;;;;;;5071560;28;20036;-67
2022/10/16 02:39:35;;;;;;;43.17;27.27;;;;;;;;;;5071999;28;20039;-67
2022/10/16 02:42:40;;;;;;;40.38;27.38;;;;;;;;;;5071436;28;20047;-67
2022/10/16 02:45:44;;;;;;;43.42;28.67;;;;;;;;;;5071519;28;20040;-67
2022/10/16 02:48:49;;;;;;;42.38;28.55;;;;;;;;;;5071881;28;20052;-67
2022/10/16 02:51:53;;;;;;;42.05;26.67;;;;;;;;;;5071393;28;20035;-68
2022/10/16 02:54:57;;;;;;;47.10;29.13;;;;;;;;;;5071453;28;20055;-67
2022/10/16 02:58:02;;;;;;;47.05;29.55;;;;;;;;;;5071017;28;20304;-68
2022/10/16 03:01:06;;;;;;;42.45;27.63;;;;;;;;;;5072262;28;20048;-67
2022/10/16 03:04:10;;;;;;;45.17;27.80;;;;;;;;;;5071275;28;20198;-67
2022/10/16 03:07:15;;;;;;;39.60;25.52;;;;;;;;;;5071635;28;20040;-67
2022/10/16 03:10:19;;;;;;;41.45;26.05;;;;;;;;;;5071548;28;20490;-67
2022/10/16 03:13:23;;;;;;;37.28;25.98;;;;;;;;;;5071131;28;20047;-67
2022/10/16 03:16:28;;;;;;;42.65;26.30;;;;;;;;;;5071173;28;20047;-67
2022/10/16 03:19:32;;;;;;;38.47;24.15;;;;;;;;;;5071204;28;20392;-67
2022/10/16 03:22:36;;;;;;;39.17;23.13;;;;;;;;;;5070893;28;20067;-68
2022/10/16 03:25:41;;;;;;;38.95;23.23;;;;;;;;;;5071112;28;20043;-67
2022/10/16 03:28:45;;;;;;;38.30;22.45;;;;;;;;;;5070994;28;20059;-68
2022/10/16 03:31:49;;;;;;;31.63;22.52;;;;;;;;;;5070984;28;20507;-67
2022/10/16 03:34:56;;;;;;;37.85;24.77;;;;;;;;;;5070970;28;20043;-67
2022/10/16 03:38:00;;;;;;;38.17;24.67;;;;;;;;;;5071046;28;20039;-68
2022/10/16 03:41:07;;;;;;;38.33;25.10;;;;;;;;;;5070694;28;20048;-67
2022/10/16 03:44:11;;;;;;;34.53;24.23;;;;;;;;;;5070869;28;20511;-67
2022/10/16 03:47:20;;;;;;;38.80;23.48;;;;;;;;;;5070935;28;20405;-67
2022/10/16 03:50:24;;;;;;;36.42;23.48;;;;;;;;;;5071016;28;20388;-67
2022/10/16 03:53:28;;;;;;;42.42;24.92;;;;;;;;;;5070726;28;20499;-67
2022/10/16 03:56:32;;;;;;;43.88;25.88;;;;;;;;;;5070491;28;20052;-67
2022/10/16 03:59:37;;;;;;;35.15;23.77;;;;;;;;;;5070732;28;20036;-67
2022/10/16 04:02:41;;;;;;;38.45;24.98;;;;;;;;;;5070662;28;20043;-67
2022/10/16 04:05:45;;;;;;;36.30;24.40;;;;;;;;;;5070637;28;20511;-67
2022/10/16 04:08:50;;;;;;;38.22;23.85;;;;;;;;;;5073027;28;20491;-67
2022/10/16 04:11:54;;;;;;;34.35;23.60;;;;;;;;;;5074517;28;20067;-67
2022/10/16 04:14:58;;;;;;;35.83;22.52;;;;;;;;;;5074153;28;20052;-67
2022/10/16 04:18:02;;;;;;;38.22;22.83;;;;;;;;;;5074614;28;20051;-67
2022/10/16 04:21:07;;;;;;;41.67;23.73;;;;;;;;;;5074522;28;20043;-67
2022/10/16 04:24:12;;;;;;;35.00;23.02;;;;;;;;;;5074450;28;20043;-67
2022/10/16 04:27:16;;;;;;;36.20;23.90;;;;;;;;;;5074163;28;20408;-67
2022/10/16 04:30:21;;;;;;;40.00;25.50;;;;;;;;;;5074010;28;20407;-67
2022/10/16 04:33:25;;;;;;;35.15;23.02;;;;;;;;;;5074064;28;20502;-67
2022/10/16 04:36:30;;;;;;;41.55;23.15;;;;;;;;;;5074329;28;20071;-67
2022/10/16 04:39:34;;;;;;;36.97;22.83;;;;;;;;;;5074313;28;20044;-67
2022/10/16 04:42:40;;;;;;;36.22;23.52;;;;;;;;;;5073712;28;20051;-67
2022/10/16 04:45:44;;;;;;;34.78;22.23;;;;;;;;;;5073834;28;20048;-67
2022/10/16 04:48:49;;;;;;;37.95;23.85;;;;;;;;;;5074083;28;20043;-67
2022/10/16 04:51:53;;;;;;;33.65;22.20;;;;;;;;;;5073487;28;20039;-68
2022/10/16 04:55:00;;;;;;;33.85;23.15;;;;;;;;;;5073742;28;20056;-67
2022/10/16 04:58:05;;;;;;;36.83;24.50;;;;;;;;;;5073551;28;20039;-67
2022/10/16 05:01:09;;;;;;;40.13;23.05;;;;;;;;;;5073602;28;20048;-67
2022/10/16 05:04:14;;;;;;;40.30;24.80;;;;;;;;;;5072836;28;20456;-67
2022/10/16 05:07:19;;;;;;;39.67;25.33;;;;;;;;;;5073311;28;20062;-67
2022/10/16 05:10:23;;;;;;;44.95;26.35;;;;;;;;;;5073537;28;20047;-68
2022/10/16 05:13:27;;;;;;;44.42;25.27;;;;;;;;;;5073498;28;20043;-67
2022/10/16 05:16:31;;;;;;;43.50;27.25;;;;;;;;;;5073405;28;20055;-68
2022/10/16 05:19:37;;;;;;;34.53;24.02;;;;;;;;;;5072611;28;20515;-67
2022/10/16 05:22:41;;;;;;;34.88;22.65;;;;;;;;;;5073392;28;20047;-67
2022/10/16 05:25:53;;;;;;;38.22;23.00;;;;;;;;;;5073252;28;20051;-67
2022/10/16 05:28:57;;;;;;;41.03;23.98;;;;;;;;;;5073149;28;20055;-67
2022/10/16 05:32:01;;;;;;;36.30;21.88;;;;;;;;;;5073203;28;20416;-67
2022/10/16 05:35:06;;;;;;;34.55;22.67;;;;;;;;;;5072895;28;20052;-68
2022/10/16 05:38:10;;;;;;;39.70;23.95;;;;;;;;;;5073636;28;20039;-68
2022/10/16 05:41:15;;;;;;;39.47;23.58;;;;;;;;;;5072684;28;20039;-68
2022/10/16 05:44:19;;;;;;;35.63;24.13;;;;;;;;;;5072657;28;20274;-68
2022/10/16 05:47:23;;;;;;;41.38;23.90;;;;;;;;;;5073015;28;20040;-68
2022/10/16 05:50:27;;;;;;;39.08;24.85;;;;;;;;;;5072509;28;20051;-68
2022/10/16 05:53:33;;;;;;;42.00;24.98;;;;;;;;;;5072238;28;20036;-68
2022/10/16 05:56:37;;;;;;;37.80;25.30;;;;;;;;;;5072672;28;20075;-68
2022/10/16 05:59:41;;;;;;;35.05;24.58;;;;;;;;;;5072391;28;20040;-68
2022/10/16 06:02:46;;;;;;;36.85;23.98;;;;;;;;;;5072266;28;20071;-68
2022/10/16 06:05:50;;;;;;;32.25;23.17;;;;;;;;;;5072613;28;20047;-68
2022/10/16 06:08:55;;;;;;;31.85;21.95;;;;;;;;;;5072327;28;20511;-69
2022/10/16 06:11:59;;;;;;;34.30;22.35;;;;;;;;;;5072010;28;20044;-69
2022/10/16 06:15:03;;;;;;;31.80;22.20;;;;;;;;;;5072301;28;20052;-69
2022/10/16 06:18:08;;;;;;;29.40;21.70;;;;;;;;;;5072105;28;20031;-69
2022/10/16 06:21:18;;;;;;;29.58;21.65;;;;;;;;;;5071362;28;20044;-69
2022/10/16 06:24:22;;;;;;;30.75;22.35;;;;;;;;;;5072147;28;20494;-69
2022/10/16 06:27:26;;;;;;;31.90;21.83;;;;;;;;;;5071984;28;20047;-68
2022/10/16 06:30:30;;;;;;;29.08;20.98;;;;;;;;;;5071667;28;20067;-68
2022/10/16 06:33:35;;;;;;;32.00;22.98;;;;;;;;;;5071793;28;20051;-67
2022/10/16 06:36:39;;;;;;;35.03;22.73;;;;;;;;;;5071521;28;20055;-68
2022/10/16 06:39:44;;;;;;;33.80;22.63;;;;;;;;;;5071987;28;20048;-68
2022/10/16 06:42:48;;;;;;;33.65;23.20;;;;;;;;;;5072194;28;20051;-68
2022/10/16 06:45:53;;;;;;;35.30;23.52;;;;;;;;;;5071678;28;20036;-68
2022/10/16 06:48:58;;;;;;;33.20;22.50;;;;;;;;;;5071661;28;20046;-68
2022/10/16 06:52:02;;;;;;;34.45;23.90;;;;;;;;;;5071425;28;20031;-68
2022/10/16 06:55:07;;;;;;;33.92;23.15;;;;;;;;;;5071117;28;20049;-68
2022/10/16 06:58:11;;;;;;;32.42;22.42;;;;;;;;;;5071469;28;20048;-68
2022/10/16 07:01:16;;;;;;;31.67;22.90;;;;;;;;;;5071341;28;20047;-68
2022/10/16 07:04:20;;;;;;;38.55;23.98;;;;;;;;;;5071219;28;20549;-68
2022/10/16 07:07:26;;;;;;;30.33;21.90;;;;;;;;;;5071438;28;20048;-68
2022/10/16 07:10:31;;;;;;;45.03;28.70;;;;;;;;;;5071083;28;20059;-68
2022/10/16 07:13:36;;;;;;;59.20;34.70;;;;;;;;;;5070748;28;20039;-68
2022/10/16 07:16:40;;;;;;;46.75;27.88;;;;;;;;;;5070971;28;20051;-67
2022/10/16 07:19:45;;;;;;;37.30;24.48;;;;;;;;;;5071052;28;20040;-67
2022/10/16 07:22:50;;;;;;;32.85;22.77;;;;;;;;;;5071329;28;20903;-67
2022/10/16 07:25:55;;;;;;;34.00;23.52;;;;;;;;;;5071135;28;20392;-67
2022/10/16 07:29:00;;;;;;;37.15;23.13;;;;;;;;;;5070880;28;20130;-67
2022/10/16 07:32:04;;;;;;;37.10;24.65;;;;;;;;;;5070856;28;20056;-67
2022/10/16 07:35:08;;;;;;;28.38;21.67;;;;;;;;;;5071008;28;20075;-67
2022/10/16 07:38:13;;;;;;;31.10;21.58;;;;;;;;;;5071037;28;20047;-67
2022/10/16 07:41:18;;;;;;;34.22;24.77;;;;;;;;;;5070941;28;20051;-67
2022/10/16 07:44:22;;;;;;;37.90;24.77;;;;;;;;;;5070645;28;20495;-69
2022/10/16 07:47:27;;;;;;;34.47;22.27;;;;;;;;;;5070826;28;20408;-69
2022/10/16 07:50:31;;;;;;;31.58;23.13;;;;;;;;;;5070632;28;20040;-70
2022/10/16 07:53:35;;;;;;;27.85;21.35;;;;;;;;;;5071308;28;20388;-67
2022/10/16 07:56:40;;;;;;;31.42;22.08;;;;;;;;;;5070798;28;20056;-70
2022/10/16 07:59:44;;;;;;;35.13;23.85;;;;;;;;;;5069808;28;20048;-68
2022/10/16 08:02:48;;;;;;;35.47;24.27;;;;;;;;;;5070712;28;20043;-68
2022/10/16 08:05:53;;;;;;;36.92;26.02;;;;;;;;;;5070884;28;20044;-68
2022/10/16 08:08:57;;;;;;;36.40;25.55;;;;;;;;;;5070355;28;20043;-68
2022/10/16 08:12:02;;;;;;;38.25;24.25;;;;;;;;;;5070441;28;20106;-68
2022/10/16 08:15:06;;;;;;;30.02;21.85;;;;;;;;;;5070529;28;20060;-68
2022/10/16 08:18:11;;;;;;;34.08;24.73;;;;;;;;;;5070321;28;20036;-68
2022/10/16 08:21:17;;;;;;;30.40;20.88;;;;;;;;;;5070376;28;20047;-68
2022/10/16 08:24:21;;;;;;;32.25;23.42;;;;;;;;;;5070442;28;20491;-68
2022/10/16 08:27:26;;;;;;;31.42;23.08;;;;;;;;;;5070576;28;20131;-68
2022/10/16 08:30:30;;;;;;;33.28;24.23;;;;;;;;;;5070465;28;20055;-68
2022/10/16 08:33:37;;;;;;;31.55;23.63;;;;;;;;;;5070142;28;20044;-68
2022/10/16 08:36:42;;;;;;;31.75;23.20;;;;;;;;;;5070306;28;20496;-68
2022/10/16 08:39:46;;;;;;;31.08;21.80;;;;;;;;;;5070328;28;20036;-68
2022/10/16 08:43:02;;;;;;;32.67;23.48;;;;;;;;;;5069916;28;20119;-68
2022/10/16 08:46:07;;;;;;;27.95;21.25;;;;;;;;;;5069848;28;20511;-68
2022/10/16 08:49:15;;;;;;;34.40;21.83;;;;;;;;;;5070217;28;20040;-68
2022/10/16 08:52:19;;;;;;;25.65;19.23;;;;;;;;;;5069787;28;20044;-68
2022/10/16 08:55:43;;;;;;;29.05;20.40;;;;;;;;;;5071689;28;20051;-69
2022/10/16 08:58:48;;;;;;;31.83;23.35;;;;;;;;;;5073513;28;20047;-69
2022/10/16 09:01:52;;;;;;;27.02;19.50;;;;;;;;;;5073830;28;20040;-69
2022/10/16 09:05:09;;;;;;;27.40;19.45;;;;;;;;;;5073676;28;20059;-69
2022/10/16 09:08:18;;;;;;;25.90;17.77;;;;;;;;;;5073719;28;20538;-68
2022/10/16 09:11:31;;;;;;;25.70;17.60;;;;;;;;;;5073212;28;20035;-68
2022/10/16 09:14:44;;;;;;;30.20;20.67;;;;;;;;;;5073249;28;20052;-68
2022/10/16 09:18:10;;;;;;;24.52;17.77;;;;;;;;;;5073217;28;20503;-68
2022/10/16 09:21:35;;;;;;;25.50;16.45;;;;;;;;;;5073107;28;20044;-68
2022/10/16 09:24:40;;;;;;;26.13;19.17;;;;;;;;;;5073166;28;20059;-69
2022/10/16 09:27:46;;;;;;;19.48;14.73;;;;;;;;;;5073000;28;20534;-69
2022/10/16 09:30:51;;;;;;;22.92;16.20;;;;;;;;;;5073154;28;20055;-69
2022/10/16 09:34:05;;;;;;;17.73;14.40;;;;;;;;;;5072413;28;20044;-69
2022/10/16 09:37:12;;;;;;;22.70;16.27;;;;;;;;;;5072882;28;20047;-69
2022/10/16 09:40:29;;;;;;;23.25;16.15;;;;;;;;;;5072971;28;20285;-69
2022/10/16 09:43:59;;;;;;;21.17;14.95;;;;;;;;;;5072711;28;20040;-69
2022/10/16 09:47:13;;;;;;;21.63;15.07;;;;;;;;;;5073088;28;20071;-69
2022/10/16 09:50:28;;;;;;;18.80;14.30;;;;;;;;;;5072642;28;20043;-69
2022/10/16 09:53:40;;;;;;;20.20;14.82;;;;;;;;;;5072908;28;20396;-69
2022/10/16 09:56:49;;;;;;;21.90;16.35;;;;;;;;;;5072862;28;20146;-69
2022/10/16 09:59:53;;;;;;;21.23;16.25;;;;;;;;;;5072961;28;20043;-69
2022/10/16 10:02:57;;;;;;;18.30;14.77;;;;;;;;;;5072408;28;20123;-69
2022/10/16 10:06:07;;;;;;;16.08;13.18;;;;;;;;;;5072591;28;20047;-70
2022/10/16 10:09:26;;;;;;;21.02;14.60;;;;;;;;;;5072175;28;20036;-69
2022/10/16 10:12:32;;;;;;;24.10;18.27;;;;;;;;;;5072012;28;20048;-69
2022/10/16 10:15:37;;;;;;;18.70;12.73;;;;;;;;;;5072286;28;20051;-70
2022/10/16 10:18:40;;;;;;;15.90;11.48;;;;;;;;;;5072218;28;20039;-70
2022/10/16 10:21:45;;;;;;;16.95;13.50;;;;;;;;;;5071938;28;20510;-70
2022/10/16 10:24:56;;;;;;;24.77;17.15;;;;;;;;;;5072716;28;20396;-70
2022/10/16 10:28:16;;;;;;;20.45;13.85;;;;;;;;;;5072509;28;20048;-69
2022/10/16 10:31:23;;;;;;;21.45;16.65;;;;;;;;;;5071491;28;20091;-69
2022/10/16 10:34:43;;;;;;;15.40;12.45;;;;;;;;;;5072056;28;20138;-70
2022/10/16 10:38:06;;;;;;;25.87;17.27;;;;;;;;;;5072023;28;20084;-68
2022/10/16 10:41:14;;;;;;;26.67;13.65;;;;;;;;;;5071727;28;20400;-68
2022/10/16 10:44:24;;;;;;;16.75;12.30;;;;;;;;;;5071782;28;20044;-69
2022/10/16 10:47:47;;;;;;;21.10;15.13;;;;;;;;;;5070963;28;20392;-69
2022/10/16 10:51:18;;;;;;;20.45;14.38;;;;;;;;;;5071557;28;20055;-69
2022/10/16 10:54:42;;;;;;;16.23;13.37;;;;;;;;;;5066617;28;20396;-69
2022/10/16 10:57:46;;;;;;;23.52;15.55;;;;;;;;;;5071601;28;20194;-69
2022/10/16 11:00:53;;;;;;;19.58;14.95;;;;;;;;;;5071226;28;20035;-69
2022/10/16 11:04:10;;;;;;;27.48;18.42;;;;;;;;;;5071293;28;20472;-69
2022/10/16 11:07:18;;;;;;;22.63;15.77;;;;;;;;;;5071134;28;20048;-69
2022/10/16 11:10:24;;;;;;;23.17;17.75;;;;;;;;;;5071378;28;20491;-69
2022/10/16 11:13:31;;;;;;;19.88;15.30;;;;;;;;;;5071410;28;20047;-69
2022/10/16 11:16:39;;;;;;;21.85;16.13;;;;;;;;;;5071094;28;20527;-69
2022/10/16 11:19:53;;;;;;;17.08;13.57;;;;;;;;;;5070245;28;20043;-69
2022/10/16 11:23:00;;;;;;;25.42;17.83;;;;;;;;;;5071186;28;20055;-69
2022/10/16 11:26:08;;;;;;;24.45;18.90;;;;;;;;;;5070755;28;20067;-69
2022/10/16 11:29:17;;;;;;;25.23;17.92;;;;;;;;;;5070970;28;20049;-69
2022/10/16 11:32:28;;;;;;;18.73;14.43;;;;;;;;;;5070016;28;20051;-69
2022/10/16 11:35:38;;;;;;;21.95;15.15;;;;;;;;;;5070741;28;20059;-69
2022/10/16 11:38:45;;;;;;;20.90;14.90;;;;;;;;;;5071235;28;20040;-69
2022/10/16 11:41:50;;;;;;;23.35;14.55;;;;;;;;;;5070767;28;20278;-68
2022/10/16 11:44:58;;;;;;;22.23;15.40;;;;;;;;;;5070344;28;20059;-69
2022/10/16 11:48:08;;;;;;;20.63;16.02;;;;;;;;;;5070862;28;20056;-69
2022/10/16 11:51:25;;;;;;;24.13;17.83;;;;;;;;;;5070752;28;20126;-69
2022/10/16 11:54:34;;;;;;;25.45;18.48;;;;;;;;;;5070776;28;20048;-69
2022/10/16 11:57:46;;;;;;;24.20;16.45;;;;;;;;;;5070840;28;20063;-69
2022/10/16 12:01:05;;;;;;;31.48;19.88;;;;;;;;;;5070493;28;20040;-69
2022/10/16 12:04:16;;;;;;;30.83;20.88;;;;;;;;;;5070656;28;20503;-69
2022/10/16 12:07:25;;;;;;;25.90;19.90;;;;;;;;;;5071084;28;20048;-69
2022/10/16 12:10:36;;;;;;;22.13;17.67;;;;;;;;;;5069780;28;20044;-69
2022/10/16 12:13:42;;;;;;;26.30;20.85;;;;;;;;;;5070651;28;20047;-69
2022/10/16 12:16:57;;;;;;;23.02;16.95;;;;;;;;;;5070689;28;20301;-69
2022/10/16 12:20:14;;;;;;;22.23;17.35;;;;;;;;;;5070331;28;20067;-69
2022/10/16 12:23:22;;;;;;;26.38;19.50;;;;;;;;;;5070994;28;20048;-69
2022/10/16 12:26:32;;;;;;;28.13;20.70;;;;;;;;;;5070864;28;20406;-69
2022/10/16 12:29:41;;;;;;;24.23;16.50;;;;;;;;;;5071157;28;20044;-69
2022/10/16 12:32:53;;;;;;;22.73;16.23;;;;;;;;;;5074166;28;20051;-69
2022/10/16 12:35:58;;;;;;;20.88;15.55;;;;;;;;;;5074215;28;20079;-69
2022/10/16 12:39:03;;;;;;;28.48;18.52;;;;;;;;;;5074363;28;20040;-69
2022/10/16 12:42:20;;;;;;;26.73;19.67;;;;;;;;;;5074282;28;20051;-69
2022/10/16 12:45:32;;;;;;;31.98;23.05;;;;;;;;;;5074105;28;20400;-69
2022/10/16 12:48:37;;;;;;;27.00;20.38;;;;;;;;;;5073077;28;20420;-69
2022/10/16 12:51:42;;;;;;;26.15;20.00;;;;;;;;;;5074508;28;20040;-69
2022/10/16 12:54:47;;;;;;;26.88;18.52;;;;;;;;;;5074154;28;20630;-69
2022/10/16 12:58:07;;;;;;;24.70;18.42;;;;;;;;;;5074097;28;20510;-69
2022/10/16 13:01:23;;;;;;;19.35;15.13;;;;;;;;;;5073701;28;20408;-69
2022/10/16 13:04:43;;;;;;;18.25;15.05;;;;;;;;;;5073478;28;20447;-69
2022/10/16 13:07:53;;;;;;;20.35;15.05;;;;;;;;;;5073021;28;20038;-69
2022/10/16 13:11:10;;;;;;;18.08;12.95;;;;;;;;;;5073118;28;20523;-69
2022/10/16 13:14:23;;;;;;;17.10;12.10;;;;;;;;;;5073261;28;20067;-69
2022/10/16 13:17:28;;;;;;;23.42;14.98;;;;;;;;;;5073399;28;20063;-69
2022/10/16 13:20:32;;;;;;;34.28;19.55;;;;;;;;;;5073072;28;20043;-69
2022/10/16 13:23:47;;;;;;;31.40;18.92;;;;;;;;;;5073607;28;20044;-69
2022/10/16 13:26:51;;;;;;;35.97;20.38;;;;;;;;;;5073405;28;20037;-69
2022/10/16 13:30:01;;;;;;;20.85;15.60;;;;;;;;;;5073138;28;20130;-69
2022/10/16 13:33:12;;;;;;;31.40;19.48;;;;;;;;;;5073178;28;20055;-69
2022/10/16 13:36:20;;;;;;;36.63;21.23;;;;;;;;;;5073011;28;20051;-69
2022/10/16 13:39:29;;;;;;;24.23;17.08;;;;;;;;;;5073098;28;20420;-69
2022/10/16 13:42:33;;;;;;;29.13;17.88;;;;;;;;;;5072651;28;20043;-69
2022/10/16 13:45:38;;;;;;;22.58;17.25;;;;;;;;;;5073089;28;20043;-69
2022/10/16 13:48:43;;;;;;;20.63;15.82;;;;;;;;;;5073186;28;20043;-69
2022/10/16 13:51:58;;;;;;;30.42;19.02;;;;;;;;;;5072574;28;20048;-69
2022/10/16 13:55:02;;;;;;;23.45;17.80;;;;;;;;;;5072640;28;20051;-69
2022/10/16 13:58:14;;;;;;;20.85;16.48;;;;;;;;;;5072889;28;20118;-69
2022/10/16 14:01:20;;;;;;;19.92;15.85;;;;;;;;;;5072367;28;20047;-69
2022/10/16 14:04:24;;;;;;;24.95;17.55;;;;;;;;;;5072270;28;20052;-69
2022/10/16 14:07:35;;;;;;;28.33;20.05;;;;;;;;;;5072397;28;20408;-69
2022/10/16 14:10:40;;;;;;;22.95;16.48;;;;;;;;;;5072999;28;20570;-69
2022/10/16 14:13:45;;;;;;;24.67;19.83;;;;;;;;;;5072359;28;20047;-69
2022/10/16 14:16:50;;;;;;;22.00;16.73;;;;;;;;;;5072212;28;20052;-69
2022/10/16 14:19:56;;;;;;;26.75;18.35;;;;;;;;;;5072237;28;20044;-69
2022/10/16 14:23:01;;;;;;;25.73;17.70;;;;;;;;;;5072332;28;20043;-69
2022/10/16 14:26:07;;;;;;;31.52;20.27;;;;;;;;;;5072308;28;20039;-69
2022/10/16 14:29:15;;;;;;;25.33;19.20;;;;;;;;;;5072143;28;20048;-69
2022/10/16 14:32:24;;;;;;;28.27;19.70;;;;;;;;;;5072217;28;20523;-69
2022/10/16 14:35:30;;;;;;;29.95;20.90;;;;;;;;;;5072088;28;20075;-69
2022/10/16 14:38:34;;;;;;;39.40;27.33;;;;;;;;;;5071812;28;20035;-69
2022/10/16 14:41:44;;;;;;;26.33;20.10;;;;;;;;;;5071969;28;20511;-69
2022/10/16 14:44:50;;;;;;;34.25;20.40;;;;;;;;;;5071821;28;20047;-69
2022/10/16 14:47:56;;;;;;;28.73;21.65;;;;;;;;;;5071740;28;20051;-69
2022/10/16 14:51:00;;;;;;;33.17;22.48;;;;;;;;;;5071408;28;20039;-69
2022/10/16 14:54:05;;;;;;;34.83;21.27;;;;;;;;;;5070849;28;20043;-69
2022/10/16 14:57:23;;;;;;;30.35;20.63;;;;;;;;;;5071391;28;20534;-69
2022/10/16 15:00:27;;;;;;;33.05;23.05;;;;;;;;;;5071361;28;20503;-69
2022/10/16 15:03:31;;;;;;;32.50;24.00;;;;;;;;;;5071477;28;20048;-69
2022/10/16 15:06:36;;;;;;;53.03;26.33;;;;;;;;;;5071317;28;20541;-69
2022/10/16 15:09:40;;;;;;;35.90;24.70;;;;;;;;;;5071495;28;20396;-69
2022/10/16 15:12:45;;;;;;;50.47;27.08;;;;;;;;;;5071415;28;20412;-69
2022/10/16 15:15:49;;;;;;;42.15;23.02;;;;;;;;;;5071069;28;20535;-69
2022/10/16 15:18:53;;;;;;;28.65;21.13;;;;;;;;;;5071140;28;20047;-69
2022/10/16 15:21:58;;;;;;;36.63;22.00;;;;;;;;;;5071087;28;20044;-69
2022/10/16 15:25:02;;;;;;;31.48;22.42;;;;;;;;;;5071265;28;20047;-69
2022/10/16 15:28:07;;;;;;;44.15;25.10;;;;;;;;;;5071351;28;20103;-69
2022/10/16 15:31:12;;;;;;;34.30;21.48;;;;;;;;;;5070920;28;20055;-69
2022/10/16 15:34:18;;;;;;;32.55;21.85;;;;;;;;;;5071250;28;20043;-69
2022/10/16 15:37:22;;;;;;;35.65;20.92;;;;;;;;;;5071025;28;20071;-69
2022/10/16 15:40:26;;;;;;;39.38;22.58;;;;;;;;;;5070933;28;20047;-69
2022/10/16 15:43:30;;;;;;;40.55;23.13;;;;;;;;;;5070947;28;20514;-69
2022/10/16 15:46:36;;;;;;;40.47;23.55;;;;;;;;;;5070808;28;20214;-69
2022/10/16 15:49:39;;;;;;;39.22;22.90;;;;;;;;;;5071145;28;20210;-69
2022/10/16 15:52:44;;;;;;;37.88;22.00;;;;;;;;;;5070479;28;20035;-69
2022/10/16 15:55:49;;;;;;;39.72;22.40;;;;;;;;;;5070599;28;20051;-69
2022/10/16 15:58:53;;;;;;;31.60;21.10;;;;;;;;;;5071006;28;20047;-69
2022/10/16 16:01:57;;;;;;;36.78;21.27;;;;;;;;;;5070418;28;20048;-69
2022/10/16 16:05:03;;;;;;;47.60;21.83;;;;;;;;;;5074135;28;20518;-69
2022/10/16 16:08:07;;;;;;;35.13;20.13;;;;;;;;;;5074887;28;20305;-69
2022/10/16 16:11:13;;;;;;;41.50;22.35;;;;;;;;;;5074678;28;20043;-69
2022/10/16 16:14:17;;;;;;;30.65;20.67;;;;;;;;;;5073745;28;20044;-70
2022/10/16 16:17:21;;;;;;;29.05;19.15;;;;;;;;;;5074848;28;20051;-70
2022/10/16 16:20:33;;;;;;;38.55;20.92;;;;;;;;;;5074588;28;20519;-69
2022/10/16 16:23:37;;;;;;;52.22;22.88;;;;;;;;;;5074264;28;20048;-69
2022/10/16 16:26:43;;;;;;;56.22;23.50;;;;;;;;;;5074282;28;20036;-69
2022/10/16 16:29:48;;;;;;;44.13;21.30;;;;;;;;;;5073959;28;20047;-69
2022/10/16 16:32:51;;;;;;;53.22;23.77;;;;;;;;;;5074143;28;20051;-69
2022/10/16 16:35:57;;;;;;;62.28;23.75;;;;;;;;;;5074104;28;20047;-69
2022/10/16 16:39:02;;;;;;;37.15;23.08;;;;;;;;;;5073445;28;20044;-69
2022/10/16 16:42:07;;;;;;;28.85;21.48;;;;;;;;;;5073792;28;20044;-69
2022/10/16 16:45:11;;;;;;;30.85;21.15;;;;;;;;;;5074107;28;20047;-69
2022/10/16 16:48:15;;;;;;;31.98;20.50;;;;;;;;;;5073834;28;20035;-69
2022/10/16 16:51:19;;;;;;;32.95;21.52;;;;;;;;;;5073612;28;20043;-69
2022/10/16 16:54:24;;;;;;;28.88;21.58;;;;;;;;;;5072980;28;20043;-69
2022/10/16 16:57:28;;;;;;;36.78;23.85;;;;;;;;;;5072946;28;20074;-69
2022/10/16 17:00:32;;;;;;;47.35;26.13;;;;;;;;;;5073606;28;20463;-70
2022/10/16 17:03:37;;;;;;;40.33;25.33;;;;;;;;;;5074099;28;20047;-69
2022/10/16 17:06:41;;;;;;;29.70;22.88;;;;;;;;;;5073225;28;20039;-69
2022/10/16 17:09:46;;;;;;;34.60;22.60;;;;;;;;;;5073616;28;20046;-69
2022/10/16 17:12:50;;;;;;;41.85;23.02;;;;;;;;;;5073272;28;20039;-69
2022/10/16 17:15:55;;;;;;;31.85;22.42;;;;;;;;;;5072495;28;20522;-69
2022/10/16 17:19:00;;;;;;;32.13;22.50;;;;;;;;;;5073316;28;20391;-69
2022/10/16 17:22:04;;;;;;;34.33;21.73;;;;;;;;;;5073323;28;20514;-70
2022/10/16 17:25:08;;;;;;;33.83;22.23;;;;;;;;;;5073582;28;20047;-69
2022/10/16 17:28:13;;;;;;;34.10;20.55;;;;;;;;;;5073622;28;20051;-69
2022/10/16 17:31:19;;;;;;;41.45;22.23;;;;;;;;;;5072879;28;20052;-69
2022/10/16 17:34:23;;;;;;;31.45;20.98;;;;;;;;;;5073289;28;20051;-70
2022/10/16 17:37:28;;;;;;;37.90;22.27;;;;;;;;;;5073055;28;20059;-70
2022/10/16 17:40:32;;;;;;;32.38;21.75;;;;;;;;;;5072884;28;20654;-69
2022/10/16 17:43:37;;;;;;;35.53;21.85;;;;;;;;;;5073385;28;20056;-70
2022/10/16 17:46:41;;;;;;;28.80;20.67;;;;;;;;;;5073610;28;20059;-69
2022/10/16 17:49:46;;;;;;;38.28;23.00;;;;;;;;;;5072389;28;20055;-69
2022/10/16 17:52:50;;;;;;;37.17;22.50;;;;;;;;;;5073267;28;20031;-70
2022/10/16 17:55:58;;;;;;;30.85;22.13;;;;;;;;;;5073030;28;20067;-70
2022/10/16 17:59:02;;;;;;;33.67;24.73;;;;;;;;;;5072740;28;20044;-69
2022/10/16 18:02:06;;;;;;;37.03;25.33;;;;;;;;;;5073175;28;20047;-69
2022/10/16 18:05:10;;;;;;;40.17;26.35;;;;;;;;;;5072519;28;20051;-69